Aeroporto :
LOGIN :

Iscrizione | Disclaimer

   EN    FR    IT 

 










Sommario :    VFR   VFR Marginale   IFR   IFR Intensivo   IFR Molto Intensivo
Visibilità : 
Base nubi : 
>= 8 km
>= 3000ft
5 / 8 km
1000 / 3000 ft
1500m / 5 km
500 / 1000 ft
800 / 1500m
200 / 500 ft
< 800m
< 200 ft
Simboli :   Temporali  Nebbia  Neve Forte  Precipitazioni Forti  Vento > 20 kt
SIGMETs :   Varie  Temporali  Ghiacco  Turbolenza  Onda orograficha  Ceneri Vulcaniche






- Altitudine del aeroporto : 607 ft
- Codice IATA : BCM


LRBC - Bacău

ULTIMO METAR :
  • 300530Z 02005KT CAVOK 07/M00 Q1010

METARs OBSOLETI :
  • 300500Z 34004KT CAVOK 04/01 Q1010
  • 300430Z 34003KT 8000 NSC 04/M01 Q1010
  • 300400Z 32004KT 8000 NSC 03/M02 Q1009
  • 300330Z 32004KT CAVOK 02/M02 Q1009
  • 300300Z 34003KT CAVOK 03/M02 Q1009

TAF TAF LRBC
Valido dal 30 a 06 ore il 30 a 15 ore UTC


300500Z 3006/3015 VRB04KT CAVOK
BECMG 3006/3008 35012KT



MetMap, La meteo Aeronautica in un colpo d'occhio ! - Copyright ORBIFLY Dicembre 2007 - Disclaimer

ORBIFLY MET'MAP TEAM :

Programmazione e sviluppo : Alexandra Zaïnal
Concezione : Baudouin d'Aumeries
Aiuto per la programmazione : Marc-Olivier Méhu
Supporto tecnico e logistico : Manuel Goepfert
Aiuto per la traduzione : Arnaldo La Scala

Contatto : metmap@orbifly.com




FONTI E CREDITI :

   NOAA